Time;durP1;ratioP1;P1;durP2;ratioP2;P2;SDS_P1;SDS_P2;PMS_P1;PMS_P2;Temp;Humidity;BMP_temperature;BMP_pressure;BME280_temperature;BME280_humidity;BME280_pressure;Samples;Min_cycle;Max_cycle;Signal;HPM_P1;HPM_P2
2022/12/29 00:01:35;;;;;;;0.77;0.70;;;8.70;99.90;8.50;99879.00;;;;4909350;28;96365;-69
2022/12/29 00:04:01;;;;;;;1.07;0.70;;;8.70;99.90;8.50;99877.00;;;;4909719;28;87671;-69
2022/12/29 00:06:27;;;;;;;1.90;0.60;;;8.60;99.90;8.50;99883.00;;;;4889468;28;87843;-71
2022/12/29 00:08:53;;;;;;;0.53;0.50;;;8.60;99.90;8.50;99893.00;;;;4876616;28;87986;-69
2022/12/29 00:11:23;;;;;;;0.87;0.87;;;8.50;99.90;8.50;99883.00;;;;4905914;28;87679;-69
2022/12/29 00:16:35;;;;;;;1.23;0.50;;;8.60;99.90;8.30;99888.00;;;;4903985;28;87953;-69
2022/12/29 00:19:02;;;;;;;1.27;0.70;;;8.50;99.90;8.20;99887.00;;;;4909886;28;87079;-71
2022/12/29 00:35:39;;;;;;;0.93;0.83;;;7.80;99.90;7.50;99836.00;;;;4903861;28;87757;-69
2022/12/29 00:46:20;;;;;;;0.73;0.53;;;8.00;99.90;7.20;99810.00;;;;4897572;28;87883;-70
2022/12/29 00:51:30;;;;;;;1.40;0.73;;;7.40;99.90;7.20;99810.00;;;;4904870;28;87769;-70
2022/12/29 00:53:56;;;;;;;0.93;0.77;;;7.30;99.90;7.20;99803.00;;;;4904455;28;108530;-72
2022/12/29 00:56:22;;;;;;;1.63;1.00;;;7.30;99.90;7.20;99792.00;;;;4908420;28;117182;-70
2022/12/29 00:58:47;;;;;;;1.00;0.60;;;7.30;99.90;7.20;99795.00;;;;4906503;28;118061;-70
2022/12/29 01:01:13;;;;;;;2.73;0.60;;;7.30;99.90;7.10;99795.00;;;;4905769;28;111591;-69
2022/12/29 01:03:39;;;;;;;1.17;0.90;;;7.30;99.90;7.10;99786.00;;;;4910053;28;93932;-72
2022/12/29 01:06:08;;;;;;;0.70;0.57;;;7.30;99.90;7.10;99796.00;;;;4906721;28;117946;-71
2022/12/29 01:08:35;;;;;;;2.13;1.03;;;7.40;99.90;7.10;99803.00;;;;4896711;28;87974;-71
2022/12/29 01:11:04;;;;;;;1.80;0.90;;;7.70;99.90;7.20;99795.00;;;;4911872;28;86982;-72
2022/12/29 01:13:30;;;;;;;0.77;0.70;;;7.30;99.90;7.20;99800.00;;;;4904202;28;90389;-70
2022/12/29 01:15:56;;;;;;;0.77;0.67;;;7.30;99.90;7.10;99802.00;;;;4910259;28;88699;-70
2022/12/29 01:18:24;;;;;;;1.23;0.97;;;7.30;99.90;7.20;99806.00;;;;4891763;28;88790;-70
2022/12/29 01:20:50;;;;;;;0.83;0.83;;;7.40;99.90;7.20;99806.00;;;;4910443;28;88992;-70
2022/12/29 01:23:16;;;;;;;0.50;0.50;;;7.40;99.90;7.20;99800.00;;;;4907995;28;108926;-71
2022/12/29 01:25:41;;;;;;;1.07;0.97;;;7.30;99.90;7.20;99803.00;;;;4893330;28;114475;-71
2022/12/29 01:28:08;;;;;;;1.00;0.80;;;8.00;99.90;7.20;99793.00;;;;4904240;28;116586;-71
2022/12/29 01:30:34;;;;;;;2.33;0.80;;;7.30;99.90;7.20;99803.00;;;;4879835;28;87927;-69
2022/12/29 01:33:00;;;;;;;2.20;0.83;;;7.40;99.90;7.20;99794.00;;;;4911541;28;87924;-71
2022/12/29 01:35:26;;;;;;;0.57;0.57;;;7.40;99.90;7.20;99796.00;;;;4875374;28;106770;-71
2022/12/29 01:37:52;;;;;;;1.30;0.93;;;7.50;99.90;7.30;99802.00;;;;4908104;28;87908;-72
2022/12/29 01:40:18;;;;;;;1.33;0.67;;;7.40;99.90;7.30;99791.00;;;;4908110;28;104051;-72
2022/12/29 01:42:44;;;;;;;0.70;0.70;;;7.40;99.90;7.30;99793.00;;;;4892043;28;89008;-70
2022/12/29 01:45:14;;;;;;;1.50;0.93;;;7.40;99.90;7.30;99785.00;;;;4909961;28;118129;-72
2022/12/29 01:47:46;;;;;;;0.77;0.77;;;7.40;99.90;7.30;99788.00;;;;4890794;28;97617;-72
2022/12/29 01:50:20;;;;;;;0.73;0.57;;;7.50;99.90;7.30;99786.00;;;;4895561;28;87862;-70
2022/12/29 01:53:05;;;;;;;0.70;0.60;;;7.50;99.90;7.40;99777.00;;;;4909317;28;87791;-71
2022/12/29 01:55:37;;;;;;;0.67;0.57;;;7.50;99.90;7.40;99775.00;;;;4913065;28;93591;-70
2022/12/29 01:58:05;;;;;;;1.47;0.90;;;7.60;99.90;7.40;99778.00;;;;4891784;28;101534;-70
2022/12/29 02:00:32;;;;;;;0.70;0.60;;;7.50;99.90;7.50;99775.00;;;;4895633;28;86999;-71
2022/12/29 02:02:57;;;;;;;0.83;0.40;;;7.70;99.90;7.50;99772.00;;;;4892189;28;88099;-71
2022/12/29 02:06:04;;;;;;;0.90;0.57;;;7.60;99.90;7.50;99779.00;;;;4889398;28;117134;-71
2022/12/29 02:08:30;;;;;;;1.00;0.67;;;7.70;99.90;7.50;99766.00;;;;4891369;28;103167;-69
2022/12/29 02:10:58;;;;;;;0.80;0.67;;;7.70;99.90;7.60;99765.00;;;;4907521;28;107725;-69
2022/12/29 02:13:25;;;;;;;0.50;0.50;;;7.70;99.90;7.60;99768.00;;;;4891061;28;96594;-70
2022/12/29 02:16:53;;;;;;;0.43;0.43;;;7.70;99.90;7.60;99775.00;;;;4915532;28;88296;-68
2022/12/29 02:20:05;;;;;;;0.50;0.50;;;7.70;99.90;7.60;99768.00;;;;4861338;28;110740;-68
2022/12/29 02:23:06;;;;;;;1.23;0.90;;;7.80;99.90;7.60;99767.00;;;;4910513;28;87755;-69
2022/12/29 02:26:03;;;;;;;0.73;0.40;;;7.80;99.90;7.70;99754.00;;;;4889149;28;99167;-69
2022/12/29 02:29:04;;;;;;;0.73;0.50;;;7.80;99.90;7.70;99750.00;;;;4912494;28;86858;-68
2022/12/29 02:31:52;;;;;;;3.30;0.83;;;7.80;99.90;7.80;99760.00;;;;4911556;28;87924;-68
2022/12/29 02:34:47;;;;;;;1.90;1.07;;;7.90;99.90;7.80;99756.00;;;;4895933;28;87724;-70
2022/12/29 02:37:41;;;;;;;0.67;0.67;;;8.00;99.90;7.90;99757.00;;;;4871653;28;92406;-69
2022/12/29 02:41:02;;;;;;;0.83;0.63;;;8.00;99.90;7.90;99737.00;;;;4896534;28;94616;-68
2022/12/29 02:43:58;;;;;;;3.60;0.73;;;8.00;99.90;7.90;99743.00;;;;4891811;28;108874;-70
2022/12/29 02:46:43;;;;;;;1.47;0.70;;;8.10;99.90;8.00;99743.00;;;;4897759;28;98376;-69
2022/12/29 02:49:15;;;;;;;0.53;0.53;;;8.10;99.90;8.00;99734.00;;;;4896675;28;88167;-68
2022/12/29 02:52:01;;;;;;;1.33;0.77;;;8.20;99.90;8.00;99745.00;;;;4916095;28;88355;-69
2022/12/29 02:54:43;;;;;;;1.13;0.73;;;8.10;99.90;8.10;99738.00;;;;4896843;28;90126;-68
2022/12/29 02:57:29;;;;;;;0.70;0.63;;;8.20;99.90;8.10;99750.00;;;;4897978;28;87002;-68
2022/12/29 03:00:16;;;;;;;0.40;0.40;;;8.20;99.90;8.20;99752.00;;;;4911227;28;87758;-69
2022/12/29 03:03:30;;;;;;;1.33;0.80;;;8.30;99.90;8.20;99752.00;;;;4895712;28;106175;-66
2022/12/29 03:06:26;;;;;;;1.93;1.03;;;8.40;99.90;8.30;99758.00;;;;4907731;28;88509;-68
2022/12/29 03:09:35;;;;;;;0.30;0.30;;;8.40;99.90;8.30;99758.00;;;;4892280;28;93233;-68
2022/12/29 03:18:25;;;;;;;2.20;0.87;;;8.50;99.90;8.40;99760.00;;;;4897762;28;88234;-68
2022/12/29 03:21:19;;;;;;;0.60;0.60;;;8.60;99.90;8.50;99756.00;;;;4894266;28;88201;-67
2022/12/29 03:23:48;;;;;;;2.40;0.67;;;8.60;99.90;8.50;99754.00;;;;4874585;28;87823;-68
2022/12/29 03:26:16;;;;;;;0.40;0.40;;;8.70;99.90;8.50;99744.00;;;;4896637;28;88260;-68
2022/12/29 03:28:53;;;;;;;0.90;0.80;;;8.60;99.90;8.60;99749.00;;;;4907251;28;87909;-67
2022/12/29 03:31:21;;;;;;;0.50;0.47;;;8.70;99.90;8.60;99741.00;;;;4905540;28;87601;-66
2022/12/29 03:33:48;;;;;;;0.50;0.50;;;8.70;99.90;8.60;99740.00;;;;4909009;28;107997;-68
2022/12/29 03:36:32;;;;;;;0.60;0.60;;;8.70;99.90;8.60;99744.00;;;;4896108;28;101500;-68
2022/12/29 03:39:11;;;;;;;1.50;0.70;;;8.70;99.90;8.60;99729.00;;;;4896163;28;87996;-67
2022/12/29 03:41:40;;;;;;;1.17;0.67;;;8.80;99.90;8.70;99723.00;;;;4892877;28;87789;-67
2022/12/29 03:44:07;;;;;;;1.30;0.63;;;8.80;99.90;8.70;99728.00;;;;4895810;28;100248;-68
2022/12/29 03:46:33;;;;;;;1.00;0.83;;;8.80;99.90;8.70;99719.00;;;;4892023;28;115870;-67
2022/12/29 03:48:58;;;;;;;1.43;0.73;;;9.10;99.90;8.80;99715.00;;;;4910253;28;88421;-67
2022/12/29 03:51:24;;;;;;;0.57;0.50;;;8.80;99.90;8.80;99720.00;;;;4907003;28;111094;-67
2022/12/29 03:53:50;;;;;;;0.63;0.57;;;8.90;99.90;8.80;99713.00;;;;4914590;28;87813;-67
2022/12/29 03:56:15;;;;;;;0.57;0.40;;;8.90;99.90;8.80;99710.00;;;;4909799;28;117580;-68
2022/12/29 03:58:41;;;;;;;1.43;0.70;;;8.90;99.90;8.80;99712.00;;;;4906568;28;117111;-68
2022/12/29 04:01:07;;;;;;;0.30;0.30;;;8.90;99.90;8.80;99721.00;;;;4908358;28;91521;-70
2022/12/29 04:03:33;;;;;;;0.80;0.60;;;9.00;99.90;8.90;99715.00;;;;4912484;28;92312;-69
2022/12/29 04:05:58;;;;;;;0.60;0.60;;;9.00;99.90;8.90;99706.00;;;;4909439;28;98557;-68
2022/12/29 04:08:24;;;;;;;1.27;0.63;;;9.00;99.90;8.90;99709.00;;;;4908383;28;117042;-70
2022/12/29 04:10:50;;;;;;;1.07;0.80;;;9.00;99.90;8.90;99705.00;;;;4908473;28;109217;-70
2022/12/29 04:13:16;;;;;;;2.30;0.93;;;9.00;99.90;9.00;99711.00;;;;4893837;28;108818;-71
2022/12/29 04:15:44;;;;;;;0.83;0.83;;;9.10;99.90;9.00;99714.00;;;;4894140;28;87457;-70
2022/12/29 04:18:09;;;;;;;0.93;0.50;;;9.10;99.90;9.00;99724.00;;;;4908940;28;88236;-68
2022/12/29 04:20:59;;;;;;;1.00;0.73;;;9.10;99.90;9.00;99720.00;;;;4908152;28;109284;-68
2022/12/29 04:23:25;;;;;;;1.70;0.90;;;9.10;99.90;9.00;99705.00;;;;4905351;28;88533;-68
2022/12/29 04:25:50;;;;;;;1.60;0.70;;;9.10;99.90;9.10;99706.00;;;;4909803;28;89224;-69
2022/12/29 04:28:17;;;;;;;1.13;0.70;;;9.10;99.90;9.10;99701.00;;;;4904194;28;118309;-70
2022/12/29 04:30:44;;;;;;;0.77;0.63;;;9.20;99.90;9.10;99696.00;;;;4893744;28;87816;-70
2022/12/29 04:33:10;;;;;;;0.87;0.70;;;9.20;99.90;9.10;99707.00;;;;4910679;28;87889;-69
2022/12/29 04:35:36;;;;;;;1.27;1.00;;;9.20;99.90;9.10;99703.00;;;;4906444;28;117848;-69
2022/12/29 04:38:02;;;;;;;1.57;0.77;;;9.30;99.90;9.10;99699.00;;;;4909080;28;115609;-70
2022/12/29 04:40:28;;;;;;;2.17;0.57;;;9.20;99.90;9.10;99698.00;;;;4904188;28;87068;-69
2022/12/29 04:42:54;;;;;;;2.00;0.70;;;9.20;99.90;9.10;99698.00;;;;4904182;28;93868;-70
2022/12/29 04:45:19;;;;;;;0.60;0.60;;;9.20;99.90;9.10;99698.00;;;;4877860;28;89548;-69
2022/12/29 04:47:45;;;;;;;0.90;0.80;;;9.30;99.90;9.10;99700.00;;;;4906345;28;115356;-70
2022/12/29 04:50:11;;;;;;;2.47;0.50;;;9.20;99.90;9.10;99692.00;;;;4908306;28;108961;-70
2022/12/29 04:52:36;;;;;;;1.37;0.87;;;9.20;99.90;9.10;99701.00;;;;4911630;28;108978;-70
2022/12/29 04:55:03;;;;;;;0.53;0.53;;;9.20;99.90;9.10;99698.00;;;;4908063;28;118015;-70
2022/12/29 04:57:29;;;;;;;0.60;0.60;;;9.20;99.90;9.10;99705.00;;;;4908240;28;88969;-71
2022/12/29 04:59:54;;;;;;;1.30;0.50;;;9.20;99.90;9.10;99713.00;;;;4906641;28;88957;-71
2022/12/29 05:02:20;;;;;;;3.33;0.93;;;9.20;99.90;9.10;99715.00;;;;4910835;28;108828;-71
2022/12/29 05:04:46;;;;;;;2.20;0.73;;;9.20;99.90;9.10;99731.00;;;;4927809;28;115013;-73
2022/12/29 05:07:12;;;;;;;1.60;0.83;;;9.30;99.90;9.10;99725.00;;;;4927020;28;87484;-73
2022/12/29 05:09:38;;;;;;;0.87;0.57;;;9.20;99.90;9.00;99720.00;;;;4922911;28;87817;-78
2022/12/29 05:12:04;;;;;;;2.13;0.60;;;9.20;99.90;9.00;99722.00;;;;4879251;28;88873;-73
2022/12/29 05:14:30;;;;;;;0.70;0.70;;;9.10;99.90;8.90;99722.00;;;;4905920;28;88335;-71
2022/12/29 05:16:56;;;;;;;0.60;0.60;;;9.10;99.90;8.90;99709.00;;;;4908194;28;116123;-71
2022/12/29 05:19:21;;;;;;;0.77;0.47;;;9.00;99.90;8.90;99710.00;;;;4899822;28;109367;-71
2022/12/29 05:21:47;;;;;;;0.77;0.60;;;9.00;99.90;8.90;99703.00;;;;4912012;28;87879;-71
2022/12/29 05:24:13;;;;;;;0.63;0.43;;;9.00;99.90;8.90;99708.00;;;;4888834;28;88242;-70
2022/12/29 05:26:40;;;;;;;2.00;0.50;;;9.00;99.90;8.90;99719.00;;;;4907268;28;88934;-72
2022/12/29 05:29:06;;;;;;;0.40;0.40;;;9.00;99.90;9.00;99715.00;;;;4905748;28;87086;-73
2022/12/29 05:31:31;;;;;;;0.97;0.63;;;9.00;99.90;9.00;99716.00;;;;4908506;28;87870;-73
2022/12/29 05:33:57;;;;;;;2.70;0.80;;;9.00;99.90;9.00;99712.00;;;;4910181;28;117933;-72
2022/12/29 05:36:23;;;;;;;1.00;0.40;;;9.10;99.90;9.00;99719.00;;;;4904852;28;110085;-73
2022/12/29 05:38:48;;;;;;;0.20;0.20;;;9.10;99.90;9.00;99711.00;;;;4910828;28;88000;-72
2022/12/29 05:41:14;;;;;;;0.63;0.40;;;9.10;99.90;9.10;99703.00;;;;4903705;28;109087;-73
2022/12/29 05:43:40;;;;;;;0.53;0.53;;;9.20;99.90;9.10;99702.00;;;;4906268;28;118882;-74
2022/12/29 05:46:05;;;;;;;0.30;0.30;;;9.70;99.90;9.10;99715.00;;;;4905494;28;118015;-73
2022/12/29 05:48:31;;;;;;;0.73;0.70;;;9.20;99.90;9.20;99701.00;;;;4912145;28;103310;-74
2022/12/29 05:50:57;;;;;;;0.67;0.47;;;9.20;99.90;9.30;99686.00;;;;4908760;28;107987;-73
2022/12/29 05:53:22;;;;;;;0.83;0.43;;;9.40;99.90;9.30;99682.00;;;;4909495;28;117065;-73
2022/12/29 05:55:49;;;;;;;0.53;0.43;;;9.40;99.90;9.40;99676.00;;;;4908270;28;115507;-73
2022/12/29 05:58:16;;;;;;;0.77;0.30;;;9.40;99.90;9.40;99662.00;;;;4890605;28;88122;-70
2022/12/29 06:00:42;;;;;;;2.37;0.80;;;9.50;99.90;9.50;99652.00;;;;4905667;28;89152;-71
2022/12/29 06:03:07;;;;;;;0.40;0.40;;;9.50;99.90;9.60;99664.00;;;;4902485;28;118104;-70
2022/12/29 06:05:33;;;;;;;1.70;0.40;;;9.60;99.90;9.70;99656.00;;;;4904430;28;118496;-71
2022/12/29 06:07:59;;;;;;;0.60;0.47;;;9.70;99.90;9.70;99664.00;;;;4904078;28;100521;-71
2022/12/29 06:10:25;;;;;;;0.47;0.43;;;9.80;99.90;9.80;99677.00;;;;4903894;28;87950;-71
2022/12/29 06:12:50;;;;;;;0.40;0.40;;;9.80;99.90;9.80;99675.00;;;;4903577;28;89006;-69
2022/12/29 06:15:16;;;;;;;0.87;0.43;;;9.80;99.90;9.80;99685.00;;;;4904539;28;116859;-68
2022/12/29 06:17:42;;;;;;;0.60;0.40;;;10.00;99.90;9.80;99682.00;;;;4886314;28;99203;-67
2022/12/29 06:20:09;;;;;;;0.77;0.70;;;9.90;99.90;9.90;99659.00;;;;4904745;28;99548;-70
2022/12/29 06:22:35;;;;;;;0.90;0.67;;;10.00;99.90;10.00;99660.00;;;;4909157;28;88026;-67
2022/12/29 06:25:01;;;;;;;0.63;0.40;;;10.00;99.90;10.00;99652.00;;;;4905311;28;103989;-69
2022/12/29 06:27:27;;;;;;;0.63;0.43;;;10.10;99.90;10.00;99645.00;;;;4907474;28;87958;-71
2022/12/29 06:29:53;;;;;;;0.60;0.50;;;10.20;99.90;10.00;99641.00;;;;4907899;28;87754;-67
2022/12/29 06:32:19;;;;;;;1.27;0.60;;;10.10;99.90;10.10;99643.00;;;;4913565;28;116647;-69
2022/12/29 06:34:45;;;;;;;1.40;0.40;;;10.20;99.90;10.10;99644.00;;;;4906351;28;117383;-69
2022/12/29 06:37:11;;;;;;;1.00;0.67;;;10.20;99.90;10.20;99648.00;;;;4908922;28;89644;-71
2022/12/29 06:39:37;;;;;;;0.50;0.50;;;10.30;99.90;10.20;99639.00;;;;4909424;28;88059;-70
2022/12/29 06:42:03;;;;;;;0.47;0.47;;;10.40;99.90;10.20;99650.00;;;;4908185;28;116657;-72
2022/12/29 06:44:28;;;;;;;0.90;0.50;;;10.30;99.90;10.20;99645.00;;;;4909377;28;87902;-72
2022/12/29 06:46:54;;;;;;;0.30;0.30;;;10.30;99.90;10.30;99654.00;;;;4906620;28;111168;-70
2022/12/29 06:49:20;;;;;;;0.60;0.60;;;10.30;99.90;10.30;99647.00;;;;4906702;28;91794;-72
2022/12/29 06:51:46;;;;;;;0.60;0.37;;;10.40;99.90;10.30;99654.00;;;;4906703;28;116288;-70
2022/12/29 06:54:12;;;;;;;1.20;0.83;;;10.40;99.90;10.30;99661.00;;;;4908798;28;88240;-72
2022/12/29 06:56:38;;;;;;;1.73;0.80;;;10.40;99.90;10.30;99648.00;;;;4912182;28;87911;-69
2022/12/29 06:59:03;;;;;;;0.77;0.53;;;10.40;99.90;10.30;99647.00;;;;4905141;28;108042;-72
2022/12/29 07:01:29;;;;;;;0.53;0.50;;;10.40;99.90;10.30;99663.00;;;;4909148;28;88758;-69
2022/12/29 07:03:55;;;;;;;0.50;0.50;;;10.40;99.90;10.30;99655.00;;;;4909487;28;118214;-73
2022/12/29 07:06:21;;;;;;;0.80;0.77;;;10.40;99.90;10.30;99665.00;;;;4890665;28;87031;-72
2022/12/29 07:08:46;;;;;;;0.40;0.40;;;10.40;99.90;10.40;99654.00;;;;4892918;28;87998;-72
2022/12/29 07:11:12;;;;;;;1.70;0.60;;;10.50;99.90;10.50;99655.00;;;;4908475;28;118855;-72
2022/12/29 07:13:38;;;;;;;0.87;0.57;;;10.50;99.90;10.50;99662.00;;;;4890343;28;115766;-71
2022/12/29 07:16:10;;;;;;;0.50;0.50;;;10.60;99.90;10.50;99657.00;;;;4904161;28;107364;-73
2022/12/29 07:18:35;;;;;;;0.70;0.60;;;10.60;99.90;10.60;99659.00;;;;4883365;28;88239;-70
2022/12/29 07:21:02;;;;;;;0.87;0.50;;;10.60;99.90;10.60;99666.00;;;;4890506;28;118175;-71
2022/12/29 07:23:28;;;;;;;1.93;0.47;;;10.70;99.90;10.60;99670.00;;;;4912147;28;88393;-71
2022/12/29 07:26:06;;;;;;;0.20;0.20;;;10.70;99.90;10.70;99672.00;;;;4910271;28;109935;-70
2022/12/29 07:28:32;;;;;;;1.53;0.60;;;10.70;99.90;10.70;99659.00;;;;4908379;28;93410;-72
2022/12/29 07:30:58;;;;;;;0.50;0.40;;;10.70;99.90;10.70;99667.00;;;;4891290;28;88274;-70
2022/12/29 07:33:24;;;;;;;2.47;0.63;;;10.80;99.90;10.70;99673.00;;;;4909451;28;101255;-70
2022/12/29 07:35:50;;;;;;;1.87;0.50;;;10.80;99.90;10.80;99669.00;;;;4909906;28;110576;-70
2022/12/29 07:38:16;;;;;;;0.53;0.37;;;10.80;99.90;10.80;99675.00;;;;4906213;28;90345;-72
2022/12/29 07:40:43;;;;;;;0.53;0.37;;;10.90;99.90;10.90;99681.00;;;;4905934;28;91115;-71
2022/12/29 07:43:09;;;;;;;0.87;0.70;;;10.90;99.90;10.90;99676.00;;;;4904872;28;117547;-70
2022/12/29 07:45:34;;;;;;;0.53;0.50;;;11.00;99.90;11.00;99680.00;;;;4904717;28;110465;-70
2022/12/29 07:48:02;;;;;;;0.97;0.60;;;11.00;99.90;11.10;99684.00;;;;4910884;28;87950;-68
2022/12/29 07:50:28;;;;;;;1.07;0.63;;;11.10;99.90;11.10;99689.00;;;;4909119;28;87946;-68
2022/12/29 07:52:54;;;;;;;0.57;0.37;;;11.20;99.90;11.20;99684.00;;;;4905426;28;111740;-69
2022/12/29 07:55:19;;;;;;;0.93;0.40;;;11.20;99.90;11.30;99682.00;;;;4907319;28;110928;-70
2022/12/29 07:57:45;;;;;;;0.50;0.30;;;11.30;99.90;11.40;99684.00;;;;4909013;28;87873;-69
2022/12/29 08:00:12;;;;;;;0.40;0.40;;;11.40;99.90;11.40;99679.00;;;;4907336;28;118008;-68
2022/12/29 08:02:37;;;;;;;0.43;0.40;;;11.40;99.90;11.50;99684.00;;;;4907135;28;88811;-72
2022/12/29 08:05:04;;;;;;;1.40;0.60;;;11.50;99.90;11.40;99677.00;;;;4909172;28;108503;-71
2022/12/29 08:07:29;;;;;;;1.37;0.77;;;11.50;99.90;11.50;99694.00;;;;4908150;28;88419;-73
2022/12/29 08:09:55;;;;;;;1.33;0.50;;;11.50;99.90;11.50;99699.00;;;;4909238;28;92634;-69
2022/12/29 08:12:20;;;;;;;0.50;0.50;;;11.50;99.90;11.50;99686.00;;;;4910833;28;117524;-69
2022/12/29 08:14:46;;;;;;;0.30;0.30;;;11.50;99.90;11.50;99696.00;;;;4907923;28;98298;-68
2022/12/29 08:17:12;;;;;;;0.53;0.50;;;11.60;99.90;11.60;99698.00;;;;4907074;28;87869;-70
2022/12/29 08:19:38;;;;;;;0.10;0.10;;;11.60;99.90;11.60;99710.00;;;;4907459;28;110269;-69
2022/12/29 08:22:04;;;;;;;0.40;0.30;;;11.60;99.90;11.60;99696.00;;;;4900542;28;87640;-68
2022/12/29 08:24:29;;;;;;;0.30;0.20;;;11.60;99.90;11.60;99707.00;;;;4901606;28;95853;-68
2022/12/29 08:26:55;;;;;;;0.33;0.30;;;11.60;99.90;11.60;99714.00;;;;4907202;28;109054;-69
2022/12/29 08:29:21;;;;;;;1.33;0.67;;;11.60;99.90;11.60;99711.00;;;;4904251;28;101338;-70
2022/12/29 08:31:47;;;;;;;0.50;0.50;;;11.60;99.90;11.60;99710.00;;;;4905646;28;88721;-70
2022/12/29 08:34:13;;;;;;;0.50;0.30;;;11.60;99.90;11.60;99717.00;;;;4909561;28;89538;-70
2022/12/29 08:36:38;;;;;;;1.07;0.47;;;11.60;99.90;11.60;99741.00;;;;4908491;28;93879;-70
2022/12/29 08:39:04;;;;;;;0.30;0.30;;;11.70;99.90;11.60;99727.00;;;;4906013;28;117786;-67
2022/12/29 08:41:30;;;;;;;0.20;0.20;;;11.70;99.90;11.70;99732.00;;;;4906027;28;102147;-69
2022/12/29 08:43:56;;;;;;;0.40;0.40;;;11.70;99.90;11.70;99723.00;;;;4906955;28;87369;-68
2022/12/29 08:46:21;;;;;;;0.30;0.30;;;11.70;99.90;11.70;99719.00;;;;4906692;28;87751;-70
2022/12/29 08:48:47;;;;;;;0.63;0.40;;;11.70;99.90;11.70;99715.00;;;;4905788;28;117789;-68
2022/12/29 08:51:13;;;;;;;0.20;0.20;;;11.70;99.90;11.70;99717.00;;;;4886564;28;116285;-68
2022/12/29 08:53:38;;;;;;;1.23;0.73;;;11.70;99.90;11.80;99711.00;;;;4902280;28;87908;-68
2022/12/29 08:56:05;;;;;;;0.50;0.47;;;11.80;99.90;11.80;99699.00;;;;4905050;28;107373;-69
2022/12/29 08:58:31;;;;;;;0.60;0.50;;;11.80;99.90;11.80;99710.00;;;;4887775;28;89340;-69
2022/12/29 09:00:57;;;;;;;0.40;0.40;;;11.80;99.90;11.80;99709.00;;;;4905152;28;109650;-67
2022/12/29 09:03:24;;;;;;;0.67;0.50;;;11.80;99.90;12.00;99706.00;;;;4886913;28;88066;-70
2022/12/29 09:05:52;;;;;;;0.43;0.43;;;11.90;99.90;12.20;99707.00;;;;4909352;28;87584;-71
2022/12/29 09:08:18;;;;;;;1.17;0.73;;;12.10;99.90;12.40;99709.00;;;;4905976;28;87393;-71
2022/12/29 09:10:45;;;;;;;0.70;0.40;;;12.30;99.90;12.50;99709.00;;;;4906627;28;116181;-71
2022/12/29 09:13:12;;;;;;;1.13;0.77;;;12.50;99.90;12.60;99692.00;;;;4904968;28;87850;-69
2022/12/29 09:15:38;;;;;;;0.73;0.50;;;12.60;99.90;12.80;99701.00;;;;4906061;28;100960;-68
2022/12/29 09:18:05;;;;;;;0.37;0.37;;;12.70;99.90;13.00;99696.00;;;;4908231;28;109921;-68
2022/12/29 09:20:31;;;;;;;0.73;0.73;;;12.90;99.90;13.10;99708.00;;;;4905674;28;88040;-68
2022/12/29 09:22:56;;;;;;;0.57;0.57;;;13.00;99.90;13.10;99692.00;;;;4907967;28;106911;-69
2022/12/29 09:25:24;;;;;;;0.57;0.37;;;13.10;99.90;13.10;99707.00;;;;4906466;28;87811;-70
2022/12/29 09:27:52;;;;;;;0.40;0.40;;;13.10;99.90;13.20;99698.00;;;;4904723;28;88070;-70
2022/12/29 09:30:19;;;;;;;2.63;0.60;;;13.20;99.90;13.20;99703.00;;;;4903995;28;88673;-69
2022/12/29 09:32:45;;;;;;;0.60;0.40;;;13.20;99.90;13.00;99717.00;;;;4905390;28;90117;-68
2022/12/29 09:35:11;;;;;;;1.60;0.70;;;13.10;99.90;12.90;99716.00;;;;4901988;28;87816;-68
2022/12/29 09:37:37;;;;;;;0.50;0.40;;;12.90;99.90;12.70;99716.00;;;;4907220;28;87740;-70
2022/12/29 09:40:04;;;;;;;2.43;0.70;;;12.80;99.90;12.70;99721.00;;;;4903313;28;93851;-69
2022/12/29 09:42:41;;;;;;;0.53;0.40;;;12.70;99.90;12.60;99708.00;;;;4910165;28;87938;-70
2022/12/29 09:45:17;;;;;;;1.90;0.50;;;12.70;99.90;12.60;99712.00;;;;4916019;28;87653;-69
2022/12/29 09:47:44;;;;;;;0.30;0.30;;;12.70;99.90;12.60;99710.00;;;;4897550;28;88020;-69
2022/12/29 09:50:33;;;;;;;0.40;0.30;;;12.40;99.90;12.50;99722.00;;;;4903465;28;88948;-69
2022/12/29 09:53:11;;;;;;;0.40;0.30;;;12.60;99.90;12.50;99706.00;;;;4893351;28;99779;-71
2022/12/29 09:55:48;;;;;;;0.83;0.70;;;12.50;99.90;12.50;99712.00;;;;4886264;28;87591;-70
2022/12/29 09:58:26;;;;;;;0.40;0.40;;;12.50;99.90;12.50;99693.00;;;;4895716;28;87177;-69
2022/12/29 10:01:20;;;;;;;0.47;0.47;;;12.50;99.90;12.50;99701.00;;;;4893708;28;87528;-69
2022/12/29 10:03:53;;;;;;;0.97;0.57;;;12.50;99.90;12.60;99695.00;;;;4908867;28;91860;-70
2022/12/29 10:06:25;;;;;;;0.97;0.40;;;12.60;99.90;12.60;99708.00;;;;4907266;28;88961;-70
2022/12/29 10:09:22;;;;;;;1.00;0.63;;;12.60;99.90;12.60;99694.00;;;;4893503;28;111308;-71
2022/12/29 10:12:24;;;;;;;0.23;0.23;;;12.60;99.90;12.70;99705.00;;;;4909521;28;88506;-68
2022/12/29 10:15:04;;;;;;;0.30;0.30;;;12.70;99.90;13.00;99699.00;;;;4867895;28;104996;-70
2022/12/29 10:17:50;;;;;;;0.40;0.33;;;12.90;99.90;13.30;99699.00;;;;4908064;28;97499;-68
2022/12/29 10:21:15;;;;;;;1.50;0.63;;;13.20;99.90;13.30;99700.00;;;;4891720;28;111858;-68
2022/12/29 10:23:50;;;;;;;0.80;0.80;;;13.30;99.90;13.40;99706.00;;;;4827538;28;105461;-69
2022/12/29 10:26:20;;;;;;;1.47;0.73;;;13.30;99.10;13.40;99696.00;;;;4908659;28;98229;-68
2022/12/29 10:28:52;;;;;;;0.60;0.60;;;13.40;98.80;13.50;99705.00;;;;4009205;28;10000503;-68
2022/12/29 10:31:25;;;;;;;1.13;0.60;;;13.50;98.60;13.70;99702.00;;;;4903345;28;87872;-70
2022/12/29 10:34:02;;;;;;;1.43;0.90;;;13.60;98.70;14.10;99690.00;;;;4909277;28;89083;-70
2022/12/29 10:36:38;;;;;;;2.93;0.30;;;14.40;98.60;14.40;99670.00;;;;4904026;28;98255;-71
2022/12/29 10:39:22;;;;;;;0.30;0.30;;;14.30;97.20;14.60;99687.00;;;;4902323;28;109737;-69
2022/12/29 10:41:59;;;;;;;1.02;0.55;;;14.50;96.00;14.70;99699.00;;;;4888870;28;87871;-69
2022/12/29 10:44:29;;;;;;;0.68;0.20;;;14.60;94.80;14.50;99680.00;;;;4872864;28;102632;-69
2022/12/29 10:47:12;;;;;;;0.68;0.40;;;14.60;94.30;14.40;99688.00;;;;4888599;28;112198;-69
2022/12/29 10:49:42;;;;;;;1.35;0.28;;;14.50;94.10;14.50;99675.00;;;;4889391;28;87955;-68
2022/12/29 10:52:09;;;;;;;0.40;0.35;;;14.50;94.10;14.70;99676.00;;;;4888586;28;87223;-68
2022/12/29 10:54:56;;;;;;;1.23;0.40;;;14.60;93.90;14.70;99666.00;;;;4887178;28;87810;-69
2022/12/29 10:57:39;;;;;;;0.70;0.43;;;14.70;93.60;14.60;99673.00;;;;4891554;28;95346;-69
2022/12/29 11:00:20;;;;;;;0.60;0.43;;;14.60;92.80;14.50;99666.00;;;;4887314;28;88809;-68
2022/12/29 11:03:36;;;;;;;0.30;0.30;;;14.50;93.00;14.40;99671.00;;;;4886829;28;87938;-71
2022/12/29 11:06:23;;;;;;;0.60;0.40;;;14.40;93.10;14.30;99667.00;;;;4889095;28;89040;-69
2022/12/29 11:09:09;;;;;;;0.52;0.35;;;14.40;93.70;14.30;99658.00;;;;4887881;28;105107;-68
2022/12/29 11:11:37;;;;;;;0.60;0.40;;;14.30;93.40;14.30;99667.00;;;;4883449;28;88014;-68
2022/12/29 11:14:13;;;;;;;0.40;0.32;;;14.30;93.40;14.20;99670.00;;;;4886827;28;88055;-67
2022/12/29 11:16:41;;;;;;;0.43;0.30;;;14.10;93.10;14.10;99666.00;;;;4891011;28;89273;-71
2022/12/29 11:19:27;;;;;;;0.75;0.55;;;14.20;93.00;14.10;99663.00;;;;4894166;28;87673;-69
2022/12/29 11:21:53;;;;;;;3.72;0.50;;;14.10;93.20;14.00;99670.00;;;;4878962;28;88146;-68
2022/12/29 11:24:26;;;;;;;0.50;0.50;;;14.10;93.40;14.00;99652.00;;;;4890324;28;87751;-69
2022/12/29 11:27:17;;;;;;;0.30;0.30;;;14.00;93.30;13.90;99665.00;;;;4888886;28;88942;-69
2022/12/29 11:29:44;;;;;;;1.80;0.38;;;14.00;93.60;13.90;99641.00;;;;4877906;28;87772;-70
2022/12/29 11:32:22;;;;;;;0.57;0.50;;;13.90;93.40;13.90;99648.00;;;;4881630;28;96720;-70
2022/12/29 11:34:48;;;;;;;2.97;0.60;;;13.90;93.90;13.90;99640.00;;;;4887973;28;99450;-69
2022/12/29 11:37:38;;;;;;;1.67;0.57;;;13.90;94.30;13.90;99647.00;;;;4883718;28;88947;-70
2022/12/29 11:40:19;;;;;;;1.35;0.43;;;13.90;94.60;13.90;99645.00;;;;4897589;28;88999;-71
2022/12/29 11:43:02;;;;;;;1.40;0.55;;;13.80;95.00;13.90;99650.00;;;;4880137;28;88978;-68
2022/12/29 11:45:33;;;;;;;0.77;0.50;;;13.80;94.80;13.90;99641.00;;;;4891226;28;87500;-71
2022/12/29 11:48:17;;;;;;;2.88;0.88;;;13.80;94.40;13.90;99632.00;;;;4876278;28;88006;-70
2022/12/29 11:50:52;;;;;;;0.60;0.55;;;13.90;94.40;13.90;99647.00;;;;4898507;28;106150;-68
2022/12/29 11:53:22;;;;;;;0.63;0.20;;;13.90;94.70;13.90;99647.00;;;;4906296;28;109961;-70